Terminal Aerodrome Forecast
Issued by NWS

Home | Current Version | Previous Version | Text Only | Print | Product List | Glossary On
Versions: 1 2 3 4 5 6 7 8 9 10 11 12 13 14
000
FTUS41 KLWX 011700 AAA
TAFMTN
TAF AMD
KMTN 011736Z 0118/0212 12007KT P6SM SCT060 BKN080
     FM020000 14006KT P6SM OVC025
     FM020200 12006KT 5SM FZRASN OVC025
     FM020500 12008KT 6SM RA OVC050
     FM020600 13009KT 6SM RA OVC008
     FM020800 14007KT 6SM -RA OVC008 WS020/19035KT
     FM021000 14006KT 6SM -RA OVC003=

USA.gov is the U.S. government's official web portal to all federal, state and local government web resources and services.